Flight Track Log - Related Links

Times and Time Zones

All times are in EDT time to prevent confusion due to time zone crossing. See the TAM3448 flight status page for this flight to view local times or setup timezone preferences in your user account.

Time Position Orientation Groundspeed Altitude Reporting Facility
EDT Latitude Longitude Course Direction KTS MPH feet Rate Location/Type
Sat 07:27:47 PM -15.8790 -47.9090 102° East 94 108 3,700  Level FlightAware ADS-B
Sat 07:28:32 PM -15.8760 -47.8690 86° East 176 203 4,500 1,543 Climbing FlightAware ADS-B
Sat 07:28:57 PM -15.8810 -47.8500 105° East 194 223 5,500 2,000 Climbing FlightAware ADS-B
Sat 07:29:32 PM -15.9060 -47.8230 134° Southeast 197 227 6,500 1,440 Climbing FlightAware ADS-B
Sat 07:29:47 PM -15.9080 -47.8090 98° East 209 241 6,700 750 Climbing FlightAware ADS-B
Sat 07:30:12 PM -15.8940 -47.7880 55° Northeast 223 257 7,000 720 Climbing FlightAware ADS-B
Sat 07:30:37 PM -15.8610 -47.7830 North 223 257 7,300 1,067 Climbing FlightAware ADS-B
Sat 07:30:57 PM -15.8410 -47.7890 344° North 291 335 7,800 2,320 Climbing FlightAware ADS-B
Sat 07:31:52 PM -15.7740 -47.8190 337° Northwest 289 333 10,200 2,021 Climbing FlightAware ADS-B
Sat 07:32:32 PM -15.7190 -47.8430 337° Northwest 315 362 11,000 1,114 Climbing FlightAware ADS-B
Sat 07:33:02 PM -15.6720 -47.8640 337° Northwest 351 404 11,500 1,650 Climbing FlightAware ADS-B
Sat 07:33:52 PM -15.5980 -47.8950 338° Northwest 353 406 13,200 2,463 Climbing FlightAware ADS-B
Sat 07:34:37 PM -15.5350 -47.9220 338° Northwest 327 376 15,400 2,025 Climbing FlightAware ADS-B
Sat 07:35:12 PM -15.4830 -47.9450 337° Northwest 349 402 15,900 776 Climbing FlightAware ADS-B
Sat 07:36:02 PM -15.4060 -47.9770 338° Northwest 378 435 16,500 1,000 Climbing FlightAware ADS-B
Sat 07:36:42 PM -15.3340 -48.0080 337° Northwest 391 450 17,400 1,412 Climbing FlightAware ADS-B
Sat 07:37:27 PM -15.2600 -48.0390 338° Northwest 396 456 18,500 1,412 Climbing FlightAware ADS-B
Sat 07:38:07 PM -15.1920 -48.0640 340° North 400 460 19,400 1,575 Climbing FlightAware ADS-B
Sat 07:38:47 PM -15.1160 -48.0680 357° North 396 456 20,600 1,412 Climbing FlightAware ADS-B
Sat 07:39:32 PM -15.0340 -48.0740 356° North 406 467 21,400 1,271 Climbing FlightAware ADS-B
Sat 07:40:12 PM -14.9560 -48.0780 357° North 407 468 22,400 1,275 Climbing FlightAware ADS-B
Sat 07:40:52 PM -14.8790 -48.0830 356° North 413 475 23,100 988 Climbing FlightAware ADS-B
Sat 07:41:37 PM -14.7920 -48.0890 356° North 421 484 23,800 918 Climbing FlightAware ADS-B
Sat 07:42:17 PM -14.7260 -48.0920 357° North 426 490 24,400 424 Climbing FlightAware ADS-B
Sat 07:43:02 PM -14.6460 -48.0980 356° North 426 490 24,400  Level FlightAware ADS-B
Sat 07:43:42 PM -14.5790 -48.1030 356° North 426 490 24,400  Level FlightAware ADS-B
Sat 07:44:22 PM -14.5120 -48.1080 356° North 426 490 24,400  Level FlightAware ADS-B
Sat 07:45:02 PM -14.4460 -48.1130 356° North 426 490 24,400  Level FlightAware ADS-B
Sat 07:45:42 PM -14.3790 -48.1180 356° North 426 490 24,400 725 Level FlightAware ADS-B
Sat 07:48:00 PM -14.1491 -48.1246 358° North  Level Estimated
Sat 07:49:00 PM -14.0491 -48.1274 358° North  Level Estimated
Sat 07:50:00 PM -13.9491 -48.1303 358° North  Level Estimated
Sat 07:51:00 PM -13.8492 -48.1332 358° North  Level Estimated
Sat 07:52:00 PM -13.7492 -48.1360 358° North  Level Estimated
Sat 07:53:00 PM -13.6492 -48.1389 358° North  Level Estimated
Sat 07:54:00 PM -13.5492 -48.1417 358° North  Level Estimated
Sat 07:55:00 PM -13.4493 -48.1446 358° North  Level Estimated
Sat 07:56:00 PM -13.3493 -48.1474 358° North  Level Estimated
Sat 07:57:00 PM -13.2493 -48.1502 358° North  Level Estimated
Sat 07:58:00 PM -13.1494 -48.1531 358° North  Level Estimated
Sat 07:59:00 PM -13.0494 -48.1559 358° North  Level Estimated
Sat 08:00:00 PM -12.9494 -48.1588 358° North  Level Estimated
Sat 08:01:00 PM -12.8495 -48.1616 358° North  Level Estimated
Sat 08:01:02 PM -12.3240 -48.2380 358° North 456 525 36,000  Level FlightAware ADS-B
Sat 08:01:42 PM -12.2320 -48.2440 356° North 456 525 36,000  Level FlightAware ADS-B
Sat 08:02:22 PM -12.1550 -48.2480 357° North 455 524 36,000  Level FlightAware ADS-B
Sat 08:03:37 PM -11.9930 -48.2570 357° North 455 524 36,000  Level FlightAware ADS-B
Sat 08:04:27 PM -11.8860 -48.2640 356° North 457 526 36,000  Level FlightAware ADS-B
Sat 08:05:07 PM -11.7900 -48.2700 356° North 458 527 36,000  Level FlightAware ADS-B
Sat 08:06:07 PM -11.6710 -48.2770 357° North 459 528 36,000  Level FlightAware ADS-B
Sat 08:06:42 PM -11.5900 -48.2810 357° North 460 529 36,000  Level FlightAware ADS-B
Sat 08:07:32 PM -11.4850 -48.2880 356° North 459 528 36,000  Level FlightAware ADS-B
Sat 08:08:22 PM -11.3800 -48.2940 357° North 458 527 36,000  Level FlightAware ADS-B
Sat 08:09:12 PM -11.2770 -48.3000 357° North 457 526 36,000  Level FlightAware ADS-B
Sat 08:10:07 PM -11.1610 -48.3070 357° North 456 525 36,000  Level FlightAware ADS-B
Sat 08:10:47 PM -11.0730 -48.3120 357° North 456 525 36,000  Level FlightAware ADS-B
Sat 08:11:32 PM -10.9830 -48.3170 357° North 455 524 36,000  Level FlightAware ADS-B
Sat 08:12:02 PM -10.9130 -48.3220 356° North 456 525 36,000  Level FlightAware ADS-B
Sat 08:12:47 PM -10.8160 -48.3270 357° North 456 525 36,000  Level FlightAware ADS-B
Sat 08:13:27 PM -10.7920 -48.3290 355° North 457 526 36,000  Level FlightAware ADS-B
Sat 08:15:07 PM -10.7400 -48.3320 357° North 457 526 36,000  Level FlightAware ADS-B
Sat 08:16:12 PM -10.4400 -48.3500 357° North 458 527 36,000  Level FlightAware ADS-B
Sat 08:16:52 PM -10.3680 -48.3560 355° North 458 527 36,000  Level FlightAware ADS-B
Sat 08:17:32 PM -10.2960 -48.3610 356° North 458 527 36,000  Level FlightAware ADS-B
Sat 08:18:12 PM -10.2240 -48.3660 356° North 458 527 36,000  Level FlightAware ADS-B
Sat 08:18:52 PM -10.1530 -48.3710 356° North 458 527 36,000  Level FlightAware ADS-B
Sat 08:19:32 PM -10.0810 -48.3760 356° North 458 527 36,000  Level FlightAware ADS-B
Sat 08:20:22 PM -9.9910 -48.3820 356° North 458 527 36,000  Level FlightAware ADS-B
Sat 08:20:32 PM -10.5100 -48.3450 176° South 36,000  Level FlightAware ADS-B
Sat 08:23:00 PM -10.2633 -48.3486 359° North  Level Estimated
Sat 08:24:00 PM -10.1633 -48.3501 359° North  Level Estimated
Sat 08:25:00 PM -10.0633 -48.3516 359° North  Level Estimated
Sat 08:26:00 PM -9.9633 -48.3530 359° North  Level Estimated
Sat 08:27:00 PM -9.8633 -48.3545 359° North  Level Estimated
Sat 08:28:00 PM -9.7633 -48.3559 359° North  Level Estimated
Sat 08:28:22 PM -8.8500 -48.3710 359° North 451 519 36,000  Level FlightAware ADS-B
Sat 08:29:27 PM -8.7110 -48.3740 359° North 452 520 36,000  Level FlightAware ADS-B
Sat 08:30:22 PM -8.6490 -48.3740 360° North 454 522 36,000  Level FlightAware ADS-B
Sat 08:31:07 PM -8.5650 -48.3760 359° North 454 522 36,000  Level FlightAware ADS-B
Sat 08:31:47 PM -8.4230 -48.3780 359° North 455 524 36,000  Level FlightAware ADS-B
Sat 08:32:27 PM -8.3430 -48.3790 359° North 455 524 36,000  Level FlightAware ADS-B
Sat 08:33:07 PM -8.2720 -48.3800 359° North 455 524 36,000  Level FlightAware ADS-B
Sat 08:33:47 PM -8.1630 -48.3820 359° North 456 525 36,000  Level FlightAware ADS-B
Sat 08:34:37 PM -8.0610 -48.3830 359° North 456 525 36,000  Level FlightAware ADS-B
Sat 08:35:17 PM -7.9900 -48.3850 358° North 456 525 36,000  Level FlightAware ADS-B
Sat 08:35:57 PM -7.9180 -48.3860 359° North 456 525 36,000  Level FlightAware ADS-B
Sat 08:36:37 PM -7.8460 -48.3870 359° North 456 525 36,000  Level FlightAware ADS-B
Sat 08:37:17 PM -7.7750 -48.3880 359° North 456 525 36,000  Level FlightAware ADS-B
Sat 08:38:07 PM -7.6850 -48.3900 359° North 456 525 36,000  Level FlightAware ADS-B
Sat 08:38:47 PM -7.6130 -48.3910 359° North 456 525 36,000  Level FlightAware ADS-B
Sat 08:39:27 PM -7.5410 -48.3930 358° North 456 525 36,000  Level FlightAware ADS-B
Sat 08:40:07 PM -7.4700 -48.3940 359° North 456 525 36,000  Level FlightAware ADS-B
Sat 08:40:47 PM -7.3980 -48.3950 359° North 456 525 36,000  Level FlightAware ADS-B
Sat 08:41:37 PM -7.3080 -48.3970 359° North 456 525 36,000  Level FlightAware ADS-B
Sat 08:42:17 PM -7.2370 -48.3980 359° North 456 525 36,000  Level FlightAware ADS-B
Sat 08:42:57 PM -7.1650 -48.3990 359° North 456 525 36,000  Level FlightAware ADS-B
Sat 08:43:37 PM -7.0930 -48.4000 359° North 456 525 36,000  Level FlightAware ADS-B
Sat 08:46:00 PM -6.8547 -48.4032 359° North  Level Estimated
Sat 08:47:00 PM -6.7547 -48.4046 359° North  Level Estimated
Sat 08:48:00 PM -6.6547 -48.4059 359° North  Level Estimated
Sat 08:49:00 PM -6.5547 -48.4072 359° North  Level Estimated
Sat 08:50:00 PM -6.4547 -48.4086 359° North  Level Estimated
Sat 08:51:00 PM -6.3547 -48.4099 359° North  Level Estimated
Sat 08:52:00 PM -6.2547 -48.4113 359° North  Level Estimated
Sat 08:53:00 PM -6.1547 -48.4126 359° North  Level Estimated
Sat 08:54:00 PM -6.0547 -48.4140 359° North  Level Estimated
Sat 08:55:00 PM -5.9547 -48.4153 359° North  Level Estimated
Sat 08:56:00 PM -5.8547 -48.4166 359° North  Level Estimated
Sat 08:57:00 PM -5.7547 -48.4180 359° North  Level Estimated
Sat 08:58:00 PM -5.6547 -48.4193 359° North  Level Estimated
Sat 08:59:00 PM -5.5547 -48.4207 359° North  Level Estimated
Sat 09:00:00 PM -5.4547 -48.4220 359° North  Level Estimated
Sat 09:01:00 PM -5.3547 -48.4233 359° North  Level Estimated
Sat 09:02:00 PM -5.2547 -48.4247 359° North  Level Estimated
Sat 09:03:00 PM -5.1547 -48.4260 359° North  Level Estimated
Sat 09:04:00 PM -5.0547 -48.4273 359° North  Level Estimated
Sat 09:05:00 PM -4.9547 -48.4287 359° North  Level Estimated
Sat 09:06:00 PM -4.8547 -48.4300 359° North  Level Estimated
Sat 09:07:00 PM -4.7547 -48.4314 359° North  Level Estimated
Sat 09:08:00 PM -4.6547 -48.4327 359° North  Level Estimated
Sat 09:09:00 PM -4.5547 -48.4341 359° North  Level Estimated
Sat 09:10:00 PM -4.4547 -48.4354 359° North  Level Estimated
Sat 09:11:00 PM -4.3547 -48.4367 359° North  Level Estimated
Sat 09:12:00 PM -4.2547 -48.4380 359° North  Level Estimated
Sat 09:13:00 PM -4.1547 -48.4394 359° North  Level Estimated
Sat 09:14:00 PM -4.0547 -48.4407 359° North  Level Estimated
Sat 09:15:00 PM -3.9547 -48.4420 359° North  Level Estimated
Sat 09:16:00 PM -3.8547 -48.4434 359° North  Level Estimated
Sat 09:17:00 PM -3.7547 -48.4447 359° North  Level Estimated
Sat 09:18:00 PM -3.6547 -48.4460 359° North  Level Estimated
Sat 09:19:00 PM -3.5547 -48.4473 359° North  Level Estimated
Sat 09:20:00 PM -3.4547 -48.4487 359° North  Level Estimated
Sat 09:21:00 PM -3.3547 -48.4500 359° North  Level Estimated
Sat 09:22:00 PM -3.2547 -48.4513 359° North  Level Estimated
Sat 09:23:00 PM -3.1547 -48.4527 359° North  Level Estimated
Sat 09:24:00 PM -3.0547 -48.4540 359° North  Level Estimated
Sat 09:25:00 PM -2.9547 -48.4553 359° North  Level Estimated
Sat 09:26:00 PM -2.8547 -48.4567 359° North  Level Estimated
Sat 09:27:00 PM -2.7547 -48.4580 359° North  Level Estimated
Sat 09:28:00 PM -2.6547 -48.4593 359° North  Level Estimated
Sat 09:29:00 PM -2.5547 -48.4607 359° North  Level Estimated
Sat 09:30:00 PM -2.4547 -48.4620 359° North  Level Estimated
Sat 09:31:00 PM -2.3547 -48.4633 359° North  Level Estimated
Sat 09:32:00 PM -2.2547 -48.4646 359° North  Level Estimated
Sat 09:33:00 PM -2.1547 -48.4660 359° North  Level Estimated
Sat 09:34:00 PM -2.0547 -48.4673 359° North  Level Estimated
Sat 09:35:00 PM -1.9547 -48.4686 359° North  Level Estimated
Sat 09:36:00 PM -1.8547 -48.4700 359° North  Level Estimated
Sat 09:37:00 PM -1.7547 -48.4713 359° North  Level Estimated
Sat 09:38:00 PM -1.6547 -48.4726 359° North  Level Estimated
Sat 09:39:00 PM -1.5547 -48.4739 359° North  Level Estimated
Sat 09:40:00 PM -1.4547 -48.4753 359° North  Level Estimated
Sat 09:41:00 PM -1.3793 -48.4763 359° North  Level Estimated
Sat 09:42:00 PM -1.3793 -48.4763 270° West  Level Estimated
Sat 09:43:00 PM -1.3793 -48.4763 270° West  Level Estimated
Sat 09:44:00 PM -1.3793 -48.4763 270° West  Level Estimated
Sat 09:45:00 PM -1.3793 -48.4763 270° West  Level Estimated
Sat 09:46:00 PM -1.3793 -48.4763 270° West  Level Estimated
Sat 09:47:00 PM -1.3793 -48.4763 270° West  Level Estimated
Sat 09:48:00 PM -1.3793 -48.4763 270° West  Level Estimated
Sat 09:49:00 PM -1.3793 -48.4763 270° West  Level Estimated
Sat 09:50:00 PM -1.3793 -48.4763 270° West  Level Estimated
Sat 09:51:00 PM -1.3793 -48.4763 270° West  Level Estimated
Sat 09:52:00 PM -1.3793 -48.4763 270° West  Level Estimated
Sat 09:53:00 PM -1.3793 -48.4763 270° West  Level Estimated
Sat 09:54:00 PM -1.3793 -48.4763 270° West  Level Estimated
Sat 09:55:00 PM -1.3793 -48.4763 270° West  Level Estimated
Sat 09:56:00 PM -1.3793 -48.4763 270° West  Level Estimated
Sat 09:57:00 PM -1.3793 -48.4763 270° West  Level Estimated
Sat 09:58:00 PM -1.3793 -48.4763 270° West  Level Estimated
Sat 09:59:00 PM -1.3793 -48.4763 270° West  Level Estimated
Sat 10:00:00 PM -1.3793 -48.4763 270° West  Level Estimated
Sat 10:01:00 PM -1.3793 -48.4763 270° West  Level Estimated

Login

Don't have an account? Register now (free) for customized features, flight alerts, and more!